Time;durP1;ratioP1;P1;durP2;ratioP2;P2;SDS_P1;SDS_P2;PMS_P1;PMS_P2;Temp;Humidity;BMP_temperature;BMP_pressure;BME280_temperature;BME280_humidity;BME280_pressure;Samples;Min_cycle;Max_cycle;Signal;HPM_P1;HPM_P2
2021/08/25 00:02:10;;;;;;;;;;;;;;;14.80;68.95;102624.69;5063704;28;19928;-48
2021/08/25 00:04:37;;;;;;;;;;;;;;;14.78;69.26;102629.22;5070648;28;19946;-52
2021/08/25 00:07:07;;;;;;;;;;;;;;;14.69;69.45;102627.06;5066316;28;19929;-52
2021/08/25 00:09:36;;;;;;;;;;;;;;;14.64;69.43;102627.34;5063657;28;19924;-54
2021/08/25 00:12:04;;;;;;;;;;;;;;;14.58;69.51;102629.41;5059168;28;20397;-49
2021/08/25 00:14:30;;;;;;;;;;;;;;;14.60;69.32;102623.09;5044173;28;19924;-52
2021/08/25 00:16:57;;;;;;;;;;;;;;;14.62;69.55;102613.28;5058630;28;19956;-46
2021/08/25 00:19:23;;;;;;;;;;;;;;;14.57;70.14;102617.13;5044253;28;20003;-47
2021/08/25 00:21:50;;;;;;;;;;;;;;;14.49;70.35;102618.38;5062458;28;19928;-52
2021/08/25 00:24:17;;;;;;;;;;;;;;;14.38;70.82;102615.44;5063657;28;19951;-48
2021/08/25 00:26:46;;;;;;;;;;;;;;;14.41;71.08;102623.25;5059405;28;19924;-50
2021/08/25 00:29:13;;;;;;;;;;;;;;;14.38;70.86;102620.72;5067718;28;19924;-47
2021/08/25 00:31:40;;;;;;;;;;;;;;;14.40;70.77;102613.59;5042548;28;19924;-46
2021/08/25 00:34:07;;;;;;;;;;;;;;;14.35;70.83;102613.81;5063608;28;19925;-49
2021/08/25 00:36:34;;;;;;;;;;;;;;;14.29;71.16;102610.63;5062537;28;20403;-47
2021/08/25 00:39:00;;;;;;;;;;;;;;;14.19;71.47;102620.84;5058981;28;20368;-48
2021/08/25 00:41:27;;;;;;;;;;;;;;;14.16;71.54;102616.56;5045500;28;19970;-51
2021/08/25 00:43:54;;;;;;;;;;;;;;;14.28;71.26;102622.19;5059378;28;19925;-47
2021/08/25 00:46:20;;;;;;;;;;;;;;;14.30;70.78;102618.50;5062578;28;19940;-46
2021/08/25 00:48:47;;;;;;;;;;;;;;;14.17;70.99;102610.34;5065827;28;19925;-51
2021/08/25 00:51:17;;;;;;;;;;;;;;;14.13;72.03;102608.81;5057158;28;19983;-49
2021/08/25 00:53:44;;;;;;;;;;;;;;;14.07;72.37;102614.44;5061498;28;19925;-46
2021/08/25 00:56:12;;;;;;;;;;;;;;;14.06;72.49;102609.19;5061892;28;20422;-47
2021/08/25 00:58:42;;;;;;;;;;;;;;;13.95;72.84;102605.31;5059983;28;19940;-47
2021/08/25 01:01:13;;;;;;;;;;;;;;;13.91;73.07;102602.94;5042994;28;19924;-47
2021/08/25 01:03:43;;;;;;;;;;;;;;;13.96;73.28;102607.06;5044266;28;19924;-44
2021/08/25 01:06:10;;;;;;;;;;;;;;;13.88;73.99;102598.66;5043404;28;20012;-52
2021/08/25 01:08:37;;;;;;;;;;;;;;;13.93;73.70;102599.25;5041542;28;19971;-50
2021/08/25 01:11:11;;;;;;;;;;;;;;;13.88;73.55;102603.94;5042117;28;19928;-53
2021/08/25 01:13:37;;;;;;;;;;;;;;;13.84;73.28;102600.59;5061859;28;19932;-51
2021/08/25 01:16:04;;;;;;;;;;;;;;;13.82;73.75;102601.59;5041955;28;19932;-53
2021/08/25 01:18:31;;;;;;;;;;;;;;;13.79;73.64;102591.19;5060043;28;20400;-53
2021/08/25 01:20:59;;;;;;;;;;;;;;;13.80;73.64;102598.19;5041824;28;20122;-54
2021/08/25 01:23:26;;;;;;;;;;;;;;;13.78;73.51;102589.47;5057902;28;19932;-53
2021/08/25 01:25:53;;;;;;;;;;;;;;;13.71;73.78;102591.56;5062072;28;19928;-53
2021/08/25 01:28:21;;;;;;;;;;;;;;;13.69;74.00;102590.81;5069331;28;19928;-52
2021/08/25 01:30:49;;;;;;;;;;;;;;;13.86;73.43;102589.94;5018499;28;20307;-52
2021/08/25 01:33:16;;;;;;;;;;;;;;;13.83;73.49;102579.53;5048599;28;19932;-53
2021/08/25 01:35:43;;;;;;;;;;;;;;;13.78;74.27;102587.66;5064760;28;19928;-51
2021/08/25 01:38:10;;;;;;;;;;;;;;;13.76;74.38;102588.72;5061643;28;20316;-52
2021/08/25 01:40:36;;;;;;;;;;;;;;;13.72;74.64;102579.22;5060049;28;20387;-53
2021/08/25 01:43:03;;;;;;;;;;;;;;;13.69;75.12;102580.22;5062263;28;19932;-51
2021/08/25 01:45:30;;;;;;;;;;;;;;;13.63;75.56;102578.75;5061307;28;19929;-51
2021/08/25 01:47:57;;;;;;;;;;;;;;;13.59;75.84;102582.47;5059513;28;19932;-51
2021/08/25 01:50:23;;;;;;;;;;;;;;;13.64;75.97;102580.44;5043071;28;19932;-52
2021/08/25 01:52:50;;;;;;;;;;;;;;;13.62;76.13;102576.16;5067679;28;19929;-53
2021/08/25 01:55:17;;;;;;;;;;;;;;;13.66;75.78;102583.88;5046773;28;19928;-53
2021/08/25 01:57:44;;;;;;;;;;;;;;;13.70;75.80;102576.63;5065464;28;19924;-52
2021/08/25 02:00:11;;;;;;;;;;;;;;;13.67;76.00;102572.38;5054542;28;19955;-53
2021/08/25 02:02:38;;;;;;;;;;;;;;;13.64;76.11;102569.88;5054570;28;19925;-52
2021/08/25 02:05:05;;;;;;;;;;;;;;;13.66;76.11;102567.13;5040542;28;19963;-53
2021/08/25 02:07:31;;;;;;;;;;;;;;;13.55;76.34;102570.31;5054566;28;19932;-52
2021/08/25 02:09:58;;;;;;;;;;;;;;;13.59;76.36;102558.66;5045330;28;19924;-52
2021/08/25 02:12:24;;;;;;;;;;;;;;;13.56;76.00;102561.47;5063148;28;19932;-51
2021/08/25 02:14:51;;;;;;;;;;;;;;;13.48;76.30;102556.59;5063389;28;20261;-51
2021/08/25 02:17:18;;;;;;;;;;;;;;;13.51;76.11;102560.84;5063466;28;19925;-47
2021/08/25 02:19:44;;;;;;;;;;;;;;;13.49;76.13;102558.28;5064924;28;19971;-53
2021/08/25 02:22:11;;;;;;;;;;;;;;;13.53;75.98;102559.00;5061657;28;20376;-54
2021/08/25 02:24:37;;;;;;;;;;;;;;;13.51;75.92;102552.91;5064084;28;19932;-54
2021/08/25 02:27:04;;;;;;;;;;;;;;;13.43;76.13;102544.50;5044309;28;19978;-53
2021/08/25 02:29:31;;;;;;;;;;;;;;;13.45;75.95;102550.59;5062540;28;19955;-52
2021/08/25 02:31:57;;;;;;;;;;;;;;;13.45;76.04;102546.16;5040250;28;20269;-53
2021/08/25 02:34:24;;;;;;;;;;;;;;;13.40;76.18;102545.53;5046018;28;19970;-51
2021/08/25 02:36:50;;;;;;;;;;;;;;;13.35;76.42;102539.59;5079557;28;19936;-51
2021/08/25 02:39:17;;;;;;;;;;;;;;;13.35;76.43;102540.47;5046982;28;19974;-53
2021/08/25 02:41:44;;;;;;;;;;;;;;;13.32;76.32;102537.09;5063509;28;19962;-51
2021/08/25 02:44:10;;;;;;;;;;;;;;;13.27;76.85;102539.97;5066729;28;19928;-54
2021/08/25 02:46:37;;;;;;;;;;;;;;;13.21;76.98;102537.66;5049907;28;19978;-52
2021/08/25 02:49:04;;;;;;;;;;;;;;;13.23;76.68;102541.06;5061874;28;19925;-52
2021/08/25 02:51:30;;;;;;;;;;;;;;;13.28;76.73;102536.41;5047411;28;19960;-52
2021/08/25 02:53:57;;;;;;;;;;;;;;;13.23;76.98;102535.78;5044285;28;19939;-50
2021/08/25 02:56:23;;;;;;;;;;;;;;;13.23;76.84;102540.22;5063993;28;19960;-52
2021/08/25 02:58:50;;;;;;;;;;;;;;;13.24;76.95;102545.41;5027962;28;20409;-52
2021/08/25 03:01:17;;;;;;;;;;;;;;;13.22;76.93;102538.50;5046006;28;19932;-51
2021/08/25 03:03:45;;;;;;;;;;;;;;;13.18;77.46;102541.31;5062405;28;19924;-53
2021/08/25 03:06:11;;;;;;;;;;;;;;;13.21;77.35;102542.06;5063091;28;20395;-52
2021/08/25 03:08:38;;;;;;;;;;;;;;;13.12;77.51;102538.09;5062494;28;20316;-51
2021/08/25 03:11:05;;;;;;;;;;;;;;;13.09;77.77;102530.31;5046186;28;19993;-53
2021/08/25 03:13:31;;;;;;;;;;;;;;;13.08;77.65;102528.63;5088677;28;19973;-44
2021/08/25 03:15:58;;;;;;;;;;;;;;;13.09;77.64;102525.03;5094826;28;19924;-50
2021/08/25 03:18:24;;;;;;;;;;;;;;;13.07;77.61;102518.97;5049439;28;19925;-45
2021/08/25 03:20:51;;;;;;;;;;;;;;;13.00;77.79;102519.25;5066338;28;19978;-46
2021/08/25 03:23:18;;;;;;;;;;;;;;;13.01;78.02;102504.28;5062376;28;19924;-44
2021/08/25 03:25:45;;;;;;;;;;;;;;;13.08;77.58;102510.13;5053289;28;19979;-48
2021/08/25 03:28:11;;;;;;;;;;;;;;;13.00;77.78;102503.41;5044144;28;19925;-46
2021/08/25 03:30:38;;;;;;;;;;;;;;;13.02;77.44;102506.00;5041409;28;19924;-46
2021/08/25 03:33:05;;;;;;;;;;;;;;;13.00;77.48;102511.34;5044043;28;20320;-47
2021/08/25 03:35:32;;;;;;;;;;;;;;;12.95;77.56;102497.53;5052879;28;20414;-53
2021/08/25 03:37:59;;;;;;;;;;;;;;;12.97;77.62;102500.94;5053980;28;19929;-51
2021/08/25 03:40:26;;;;;;;;;;;;;;;12.97;77.80;102506.22;5080086;28;19935;-51
2021/08/25 03:42:52;;;;;;;;;;;;;;;12.96;77.93;102501.00;5042703;28;19975;-51
2021/08/25 03:45:19;;;;;;;;;;;;;;;12.96;77.86;102496.56;5062086;28;20363;-52
2021/08/25 03:47:46;;;;;;;;;;;;;;;12.95;77.83;102502.81;5057903;28;19924;-54
2021/08/25 03:50:12;;;;;;;;;;;;;;;12.92;78.11;102497.66;5062944;28;19972;-53
2021/08/25 03:52:39;;;;;;;;;;;;;;;12.85;78.45;102493.63;5061790;28;20387;-52
2021/08/25 03:55:06;;;;;;;;;;;;;;;12.87;78.38;102490.91;5066191;28;19931;-52
2021/08/25 03:57:32;;;;;;;;;;;;;;;12.85;78.30;102478.63;5064315;28;20421;-52
2021/08/25 03:59:59;;;;;;;;;;;;;;;12.90;78.22;102481.06;5060743;28;19924;-52
2021/08/25 04:02:26;;;;;;;;;;;;;;;12.86;78.64;102479.50;5061143;28;19925;-52
2021/08/25 04:04:52;;;;;;;;;;;;;;;12.84;78.60;102476.06;5064140;28;20173;-52
2021/08/25 04:07:19;;;;;;;;;;;;;;;12.87;78.61;102477.69;5063047;28;20363;-51
2021/08/25 04:09:46;;;;;;;;;;;;;;;12.84;78.46;102474.28;5043697;28;19925;-52
2021/08/25 04:12:12;;;;;;;;;;;;;;;12.80;78.73;102477.13;5058546;28;19959;-50
2021/08/25 04:14:39;;;;;;;;;;;;;;;12.84;78.56;102476.06;5059145;28;19925;-52
2021/08/25 04:17:07;;;;;;;;;;;;;;;12.81;78.47;102468.28;5060009;28;20317;-53
2021/08/25 04:19:34;;;;;;;;;;;;;;;12.77;78.77;102475.50;5062492;28;21953;-51
2021/08/25 04:22:01;;;;;;;;;;;;;;;12.76;79.11;102467.66;5059434;28;19929;-50
2021/08/25 04:24:27;;;;;;;;;;;;;;;12.76;79.28;102465.88;5062360;28;19970;-54
2021/08/25 04:26:54;;;;;;;;;;;;;;;12.79;79.19;102467.53;5058751;28;19929;-49
2021/08/25 04:29:20;;;;;;;;;;;;;;;12.72;79.33;102458.19;5059693;28;19940;-51
2021/08/25 04:31:47;;;;;;;;;;;;;;;12.77;79.07;102464.09;5062599;28;19924;-49
2021/08/25 04:34:14;;;;;;;;;;;;;;;12.64;80.68;102461.22;5059751;28;19954;-52
2021/08/25 04:36:40;;;;;;;;;;;;;;;12.66;80.08;102462.81;5060317;28;19925;-51
2021/08/25 04:39:07;;;;;;;;;;;;;;;12.62;80.75;102463.88;5042381;28;19932;-49
2021/08/25 04:41:34;;;;;;;;;;;;;;;12.60;80.35;102460.50;5072594;28;20019;-52
2021/08/25 04:44:00;;;;;;;;;;;;;;;12.55;81.05;102462.47;5043111;28;19932;-52
2021/08/25 04:46:27;;;;;;;;;;;;;;;12.48;81.38;102461.91;5057336;28;20326;-53
2021/08/25 04:48:54;;;;;;;;;;;;;;;12.42;81.46;102464.00;5061706;28;20035;-51
2021/08/25 04:51:20;;;;;;;;;;;;;;;12.37;81.43;102461.59;5061643;28;19931;-52
2021/08/25 04:53:47;;;;;;;;;;;;;;;12.41;81.89;102468.44;5042631;28;19956;-50
2021/08/25 04:56:14;;;;;;;;;;;;;;;12.45;81.72;102466.50;5054063;28;19933;-48
2021/08/25 04:58:40;;;;;;;;;;;;;;;12.36;81.85;102475.69;5063393;28;20019;-48
2021/08/25 05:01:07;;;;;;;;;;;;;;;12.30;82.33;102468.94;5068185;28;19925;-52
2021/08/25 05:03:35;;;;;;;;;;;;;;;12.37;81.88;102466.00;5054972;28;19924;-53
2021/08/25 05:06:05;;;;;;;;;;;;;;;12.34;81.75;102464.38;5055219;28;19986;-53
2021/08/25 05:08:32;;;;;;;;;;;;;;;12.33;81.93;102462.66;5055324;28;19935;-53
2021/08/25 05:10:58;;;;;;;;;;;;;;;12.37;82.17;102458.09;5054976;28;19993;-52
2021/08/25 05:13:25;;;;;;;;;;;;;;;12.36;81.86;102459.03;5078143;28;19945;-53
2021/08/25 05:15:51;;;;;;;;;;;;;;;12.33;82.21;102455.59;5092854;28;19974;-50
2021/08/25 05:18:18;;;;;;;;;;;;;;;12.29;82.52;102451.38;5066117;28;19924;-53
2021/08/25 05:20:45;;;;;;;;;;;;;;;12.28;82.78;102452.31;5060754;28;19967;-51
2021/08/25 05:23:11;;;;;;;;;;;;;;;12.37;82.74;102455.47;5062165;28;19925;-50
2021/08/25 05:25:38;;;;;;;;;;;;;;;12.37;82.54;102456.31;5035135;28;19925;-50
2021/08/25 05:28:04;;;;;;;;;;;;;;;12.41;83.24;102451.75;5041794;28;19924;-51
2021/08/25 05:30:34;;;;;;;;;;;;;;;12.42;83.16;102454.31;5076770;28;19924;-52
2021/08/25 05:33:01;;;;;;;;;;;;;;;12.36;83.45;102453.75;5073058;28;19932;-52
2021/08/25 05:35:27;;;;;;;;;;;;;;;12.40;83.50;102457.94;5076323;28;19924;-53
2021/08/25 05:37:54;;;;;;;;;;;;;;;12.40;84.00;102460.59;5096411;28;19928;-51
2021/08/25 05:40:21;;;;;;;;;;;;;;;12.48;83.92;102450.53;5067365;28;19928;-53
2021/08/25 05:42:47;;;;;;;;;;;;;;;12.56;83.74;102461.56;5076571;28;19970;-52
2021/08/25 05:45:14;;;;;;;;;;;;;;;12.46;84.09;102462.91;5076428;28;19929;-51
2021/08/25 05:47:41;;;;;;;;;;;;;;;12.51;84.08;102463.56;5076348;28;19924;-44
2021/08/25 05:50:08;;;;;;;;;;;;;;;12.56;84.25;102461.56;5076371;28;20018;-47
2021/08/25 05:52:35;;;;;;;;;;;;;;;12.60;84.50;102470.19;5081043;28;20295;-47
2021/08/25 05:55:02;;;;;;;;;;;;;;;12.68;83.90;102465.41;5076461;28;19924;-47
2021/08/25 05:57:28;;;;;;;;;;;;;;;12.85;83.67;102472.50;5058478;28;19924;-48
2021/08/25 05:59:56;;;;;;;;;;;;;;;12.88;84.10;102467.06;5042050;28;19928;-47
2021/08/25 06:02:22;;;;;;;;;;;;;;;12.90;84.03;102467.84;5076002;28;19948;-48
2021/08/25 06:04:49;;;;;;;;;;;;;;;12.94;83.96;102468.53;5076090;28;19967;-47
2021/08/25 06:07:16;;;;;;;;;;;;;;;12.95;84.34;102467.59;5051956;28;19924;-44
2021/08/25 06:09:43;;;;;;;;;;;;;;;13.01;84.29;102472.59;5064083;28;19932;-46
2021/08/25 06:12:09;;;;;;;;;;;;;;;13.07;84.16;102469.63;5074461;28;19929;-43
2021/08/25 06:14:38;;;;;;;;;;;;;;;13.11;84.48;102471.19;5082587;28;20318;-52
2021/08/25 06:17:05;;;;;;;;;;;;;;;13.19;84.49;102469.03;5070839;28;19924;-54
2021/08/25 06:19:32;;;;;;;;;;;;;;;13.26;84.49;102469.56;5096039;28;19988;-52
2021/08/25 06:21:58;;;;;;;;;;;;;;;13.37;85.05;102470.84;5064825;28;19931;-51
2021/08/25 06:24:25;;;;;;;;;;;;;;;13.44;84.98;102475.75;5076158;28;19924;-53
2021/08/25 06:26:51;;;;;;;;;;;;;;;13.57;84.10;102469.84;5053660;28;19928;-51
2021/08/25 06:29:18;;;;;;;;;;;;;;;13.64;84.50;102469.41;5054837;28;19978;-54
2021/08/25 06:31:45;;;;;;;;;;;;;;;13.73;84.75;102469.88;5055173;28;20441;-48
2021/08/25 06:34:11;;;;;;;;;;;;;;;13.81;84.40;102467.66;5054611;28;20387;-47
2021/08/25 06:36:38;;;;;;;;;;;;;;;13.91;84.03;102474.19;5060150;28;20303;-45
2021/08/25 06:39:05;;;;;;;;;;;;;;;14.01;84.39;102469.25;5072931;28;20474;-46
2021/08/25 06:41:31;;;;;;;;;;;;;;;14.12;83.91;102473.97;5078550;28;20394;-49
2021/08/25 06:43:58;;;;;;;;;;;;;;;14.26;83.23;102473.19;5067783;28;19924;-46
2021/08/25 06:46:24;;;;;;;;;;;;;;;14.39;81.96;102479.53;5077984;28;19944;-49
2021/08/25 06:48:51;;;;;;;;;;;;;;;14.54;81.30;102480.47;5057073;28;19970;-52
2021/08/25 06:51:18;;;;;;;;;;;;;;;14.66;81.03;102471.03;5076308;28;20449;-48
2021/08/25 06:53:44;;;;;;;;;;;;;;;14.79;80.46;102472.03;5087585;28;19928;-49
2021/08/25 06:56:11;;;;;;;;;;;;;;;14.95;80.24;102466.69;5077609;28;20383;-47
2021/08/25 06:58:38;;;;;;;;;;;;;;;15.11;79.46;102471.09;5066520;28;19970;-44
2021/08/25 07:01:04;;;;;;;;;;;;;;;15.33;79.17;102470.69;5063839;28;20291;-53
2021/08/25 07:03:31;;;;;;;;;;;;;;;15.39;78.21;102470.31;5055945;28;20576;-47
2021/08/25 07:05:58;;;;;;;;;;;;;;;15.52;78.26;102470.44;5075162;28;20027;-45
2021/08/25 07:08:25;;;;;;;;;;;;;;;15.66;78.26;102470.44;5093569;28;19978;-46
2021/08/25 07:10:51;;;;;;;;;;;;;;;15.78;78.12;102460.88;5070344;28;20359;-46
2021/08/25 07:13:18;;;;;;;;;;;;;;;16.02;74.82;102463.84;5084439;28;20390;-47
2021/08/25 07:15:45;;;;;;;;;;;;;;;16.17;74.11;102461.16;5071482;28;20394;-49
2021/08/25 07:18:12;;;;;;;;;;;;;;;16.33;74.39;102450.41;5052883;28;19931;-45
2021/08/25 07:20:44;;;;;;;;;;;;;;;16.53;73.59;102452.63;5061500;28;20011;-54
2021/08/25 07:23:11;;;;;;;;;;;;;;;16.69;71.89;102457.81;5073445;28;19932;-54
2021/08/25 07:25:37;;;;;;;;;;;;;;;16.84;71.61;102458.59;5085316;28;19977;-52
2021/08/25 07:28:06;;;;;;;;;;;;;;;16.99;70.17;102453.25;5069761;28;20363;-54
2021/08/25 07:30:32;;;;;;;;;;;;;;;17.14;69.54;102451.34;5053567;28;19924;-52
2021/08/25 07:32:59;;;;;;;;;;;;;;;17.25;68.58;102443.50;5074463;28;19925;-54
2021/08/25 07:35:29;;;;;;;;;;;;;;;17.42;68.68;102436.19;5072156;28;19924;-52
2021/08/25 07:37:56;;;;;;;;;;;;;;;17.60;69.04;102429.59;5069641;28;19924;-54
2021/08/25 07:40:23;;;;;;;;;;;;;;;17.83;68.93;102433.28;5062346;28;19970;-53
2021/08/25 07:42:50;;;;;;;;;;;;;;;17.99;67.63;102438.38;5057548;28;19924;-51
2021/08/25 07:45:17;;;;;;;;;;;;;;;18.26;67.16;102436.50;5072458;28;19924;-52
2021/08/25 07:47:45;;;;;;;;;;;;;;;18.38;66.10;102436.44;5060288;28;19932;-54
2021/08/25 07:50:12;;;;;;;;;;;;;;;18.54;66.40;102428.19;5066734;28;20003;-54
2021/08/25 07:52:39;;;;;;;;;;;;;;;18.72;65.14;102431.28;5052986;28;19924;-52
2021/08/25 07:55:06;;;;;;;;;;;;;;;18.96;64.59;102429.56;5086927;28;20341;-55
2021/08/25 07:57:32;;;;;;;;;;;;;;;19.08;64.38;102418.81;5061111;28;20426;-54
2021/08/25 07:59:59;;;;;;;;;;;;;;;19.28;63.92;102424.44;5072455;28;19955;-55
2021/08/25 08:02:26;;;;;;;;;;;;;;;19.53;63.96;102422.53;5069172;28;19925;-57
2021/08/25 08:04:55;;;;;;;;;;;;;;;19.69;61.93;102419.50;5059880;28;19929;-54
2021/08/25 08:07:22;;;;;;;;;;;;;;;19.89;61.41;102420.59;5078440;28;19931;-53
2021/08/25 08:09:48;;;;;;;;;;;;;;;20.03;60.04;102409.66;5091651;28;19970;-55
2021/08/25 08:12:15;;;;;;;;;;;;;;;20.19;59.01;102413.75;5063113;28;19967;-55
2021/08/25 08:14:42;;;;;;;;;;;;;;;20.39;58.25;102414.78;5059415;28;19924;-54
2021/08/25 08:17:08;;;;;;;;;;;;;;;20.57;57.89;102412.41;5042474;28;19928;-54
2021/08/25 08:19:35;;;;;;;;;;;;;;;20.64;55.84;102418.94;5046338;28;19924;-55
2021/08/25 08:22:02;;;;;;;;;;;;;;;20.84;55.64;102411.09;5041697;28;19967;-55
2021/08/25 08:24:29;;;;;;;;;;;;;;;21.05;53.22;102408.41;5046474;28;19924;-55
2021/08/25 08:26:56;;;;;;;;;;;;;;;21.35;51.83;102415.66;5043961;28;19925;-55
2021/08/25 08:29:22;;;;;;;;;;;;;;;21.56;49.28;102417.47;5052235;28;19932;-55
2021/08/25 08:31:49;;;;;;;;;;;;;;;21.70;49.02;102403.69;5063215;28;19924;-55
2021/08/25 08:34:16;;;;;;;;;;;;;;;21.98;48.88;102406.63;5093497;28;19932;-54
2021/08/25 08:36:43;;;;;;;;;;;;;;;22.09;49.43;102411.00;5078740;28;19933;-55
2021/08/25 08:39:09;;;;;;;;;;;;;;;22.27;49.01;102406.66;5062864;28;20290;-55
2021/08/25 08:41:38;;;;;;;;;;;;;;;22.32;47.35;102406.25;5059259;28;19925;-55
2021/08/25 08:44:05;;;;;;;;;;;;;;;22.42;48.46;102407.13;5060826;28;19924;-55
2021/08/25 08:46:31;;;;;;;;;;;;;;;22.71;48.98;102406.25;5041817;28;19932;-55
2021/08/25 08:48:58;;;;;;;;;;;;;;;22.84;48.01;102405.13;5059319;28;19933;-54
2021/08/25 08:51:25;;;;;;;;;;;;;;;23.15;48.60;102388.84;5051501;28;20354;-55
2021/08/25 08:53:52;;;;;;;;;;;;;;;23.23;47.30;102388.97;5051199;28;19925;-54
2021/08/25 08:56:19;;;;;;;;;;;;;;;23.18;46.35;102381.38;5051144;28;19979;-55
2021/08/25 08:58:45;;;;;;;;;;;;;;;23.41;47.03;102375.63;5062267;28;19933;-54
2021/08/25 09:01:12;;;;;;;;;;;;;;;23.67;47.08;102374.94;5027430;28;19925;-54
2021/08/25 09:03:39;;;;;;;;;;;;;;;23.61;45.17;102371.00;5060991;28;19986;-54
2021/08/25 09:06:07;;;;;;;;;;;;;;;23.70;45.71;102366.59;5060062;28;19956;-55
2021/08/25 09:08:39;;;;;;;;;;;;;;;24.04;44.85;102358.75;5050012;28;20406;-55
2021/08/25 09:11:08;;;;;;;;;;;;;;;24.19;44.33;102358.25;5051971;28;20020;-56
2021/08/25 09:13:38;;;;;;;;;;;;;;;24.44;44.19;102359.28;5069782;28;19924;-54
2021/08/25 09:16:05;;;;;;;;;;;;;;;24.47;43.57;102361.66;5080332;28;19925;-55
2021/08/25 09:18:32;;;;;;;;;;;;;;;24.29;41.11;102364.38;5048641;28;20017;-54
2021/08/25 09:20:59;;;;;;;;;;;;;;;24.30;40.93;102361.53;5044506;28;19929;-54
2021/08/25 09:23:27;;;;;;;;;;;;;;;24.42;39.69;102358.63;5060605;28;19933;-55
2021/08/25 09:25:55;;;;;;;;;;;;;;;24.50;39.20;102356.00;5048959;28;19931;-56
2021/08/25 09:28:27;;;;;;;;;;;;;;;24.64;38.65;102363.50;5039395;28;19955;-55
2021/08/25 09:30:55;;;;;;;;;;;;;;;24.56;38.94;102355.34;5060348;28;20627;-52
2021/08/25 09:33:30;;;;;;;;;;;;;;;24.97;40.92;102354.81;5071585;28;19999;-54
2021/08/25 09:36:01;;;;;;;;;;;;;;;25.23;40.64;102345.88;5059244;28;19931;-55
2021/08/25 09:38:28;;;;;;;;;;;;;;;25.19;39.83;102352.59;5084754;28;19924;-55
2021/08/25 09:41:11;;;;;;;;;;;;;;;25.33;37.83;102341.22;5088227;28;20750;-53
2021/08/25 09:43:42;;;;;;;;;;;;;;;25.70;36.67;102342.72;5061531;28;19978;-56
2021/08/25 09:46:13;;;;;;;;;;;;;;;26.09;37.45;102344.00;5063424;28;20351;-54
2021/08/25 09:48:50;;;;;;;;;;;;;;;26.29;35.80;102344.53;5061477;28;19979;-56
2021/08/25 09:51:17;;;;;;;;;;;;;;;26.29;37.31;102336.44;5041847;28;20359;-54
2021/08/25 09:53:45;;;;;;;;;;;;;;;26.47;36.05;102341.66;5063321;28;20252;-55
2021/08/25 09:56:19;;;;;;;;;;;;;;;26.73;36.21;102336.09;5062266;28;19928;-55
2021/08/25 09:58:46;;;;;;;;;;;;;;;26.41;35.54;102336.94;5059680;28;19929;-56
2021/08/25 10:01:13;;;;;;;;;;;;;;;26.44;35.27;102337.44;5043507;28;20391;-54
2021/08/25 10:03:40;;;;;;;;;;;;;;;26.40;34.85;102336.09;5060511;28;19931;-56
2021/08/25 10:06:07;;;;;;;;;;;;;;;26.50;35.10;102333.22;5065849;28;19924;-55
2021/08/25 10:08:34;;;;;;;;;;;;;;;26.78;35.87;102330.19;5090863;28;19951;-55
2021/08/25 10:11:05;;;;;;;;;;;;;;;26.69;34.59;102323.91;5065903;28;19937;-55
2021/08/25 10:13:32;;;;;;;;;;;;;;;26.41;36.45;102327.00;5059702;28;19931;-52
2021/08/25 10:15:59;;;;;;;;;;;;;;;26.79;36.80;102312.97;5078216;28;19924;-53
2021/08/25 10:18:26;;;;;;;;;;;;;;;26.85;35.34;102317.69;5053981;28;19955;-54
2021/08/25 10:20:54;;;;;;;;;;;;;;;27.20;34.63;102314.69;5045486;28;19932;-55
2021/08/25 10:23:40;;;;;;;;;;;;;;;27.39;35.88;102306.22;5062537;28;20307;-56
2021/08/25 10:26:08;;;;;;;;;;;;;;;27.38;33.24;102303.66;5044196;28;19932;-53
2021/08/25 10:28:53;;;;;;;;;;;;;;;27.64;34.68;102297.97;5063531;28;19967;-54
2021/08/25 10:31:20;;;;;;;;;;;;;;;27.83;34.91;102302.88;5047977;28;20016;-53
2021/08/25 10:34:05;;;;;;;;;;;;;;;27.86;34.15;102296.28;5061078;28;19963;-53
2021/08/25 10:36:34;;;;;;;;;;;;;;;28.14;33.18;102290.34;5080376;28;19973;-52
2021/08/25 10:39:01;;;;;;;;;;;;;;;27.91;32.59;102277.66;5077313;28;19932;-55
2021/08/25 10:41:28;;;;;;;;;;;;;;;28.05;33.32;102275.25;5056404;28;20295;-52
2021/08/25 10:43:56;;;;;;;;;;;;;;;27.85;32.32;102269.44;5046563;28;19939;-55
2021/08/25 10:46:22;;;;;;;;;;;;;;;27.78;33.88;102264.75;5070811;28;19924;-53
2021/08/25 10:48:54;;;;;;;;;;;;;;;28.22;33.15;102262.41;5045464;28;20252;-54
2021/08/25 10:51:24;;;;;;;;;;;;;;;28.08;31.87;102259.47;5046449;28;19999;-55
2021/08/25 10:53:51;;;;;;;;;;;;;;;28.44;32.47;102264.22;5063603;28;19932;-54
2021/08/25 10:56:23;;;;;;;;;;;;;;;27.94;32.46;102260.25;5063248;28;20431;-55
2021/08/25 10:58:54;;;;;;;;;;;;;;;28.38;32.73;102258.69;5047259;28;19924;-55
2021/08/25 11:01:37;;;;;;;;;;;;;;;28.37;33.04;102257.84;5067433;28;19925;-52
2021/08/25 11:04:06;;;;;;;;;;;;;;;28.36;31.62;102260.75;5040180;28;19929;-55
2021/08/25 11:06:38;;;;;;;;;;;;;;;28.51;30.91;102256.19;5055167;28;20399;-54
2021/08/25 11:09:12;;;;;;;;;;;;;;;28.53;31.05;102245.19;5055021;28;20265;-56
2021/08/25 11:11:39;;;;;;;;;;;;;;;28.56;31.00;102247.50;5053734;28;19924;-55
2021/08/25 11:14:06;;;;;;;;;;;;;;;28.67;30.44;102249.78;5053790;28;19929;-55
2021/08/25 11:16:32;;;;;;;;;;;;;;;28.81;31.18;102248.13;5054740;28;19928;-55
2021/08/25 11:18:59;;;;;;;;;;;;;;;28.97;30.13;102247.91;5053240;28;20310;-54
2021/08/25 11:21:26;;;;;;;;;;;;;;;29.26;30.85;102238.06;5054631;28;19961;-55
2021/08/25 11:23:53;;;;;;;;;;;;;;;28.92;30.06;102230.53;5054862;28;20459;-55
2021/08/25 11:26:19;;;;;;;;;;;;;;;28.97;30.69;102230.81;5054313;28;19975;-55
2021/08/25 11:28:46;;;;;;;;;;;;;;;28.93;30.98;102232.22;5054551;28;19925;-54
2021/08/25 11:31:13;;;;;;;;;;;;;;;28.73;31.87;102227.41;5054489;28;19925;-54
2021/08/25 11:33:44;;;;;;;;;;;;;;;29.07;31.29;102220.53;5054393;28;20324;-54
2021/08/25 11:36:11;;;;;;;;;;;;;;;29.46;31.60;102213.06;5053195;28;19982;-54
2021/08/25 11:38:38;;;;;;;;;;;;;;;29.70;30.32;102203.69;5054446;28;19924;-55
2021/08/25 11:41:04;;;;;;;;;;;;;;;30.03;30.25;102200.44;5054358;28;20411;-54
2021/08/25 11:43:31;;;;;;;;;;;;;;;29.87;29.85;102198.84;5054604;28;20434;-55
2021/08/25 11:45:57;;;;;;;;;;;;;;;29.60;30.45;102195.03;5053921;28;19978;-54
2021/08/25 11:48:25;;;;;;;;;;;;;;;28.98;31.59;102195.41;5036377;28;19925;-55
2021/08/25 11:50:52;;;;;;;;;;;;;;;29.25;31.53;102192.22;5052869;28;19924;-53
2021/08/25 11:53:20;;;;;;;;;;;;;;;29.41;31.67;102189.25;5036206;28;19951;-55
2021/08/25 11:55:47;;;;;;;;;;;;;;;29.85;31.72;102181.97;5053960;28;19925;-55
2021/08/25 11:58:24;;;;;;;;;;;;;;;29.55;31.87;102173.97;5036219;28;19974;-57
2021/08/25 12:00:52;;;;;;;;;;;;;;;29.93;30.02;102164.72;5053824;28;19971;-55
2021/08/25 12:03:18;;;;;;;;;;;;;;;29.46;30.98;102165.16;5053945;28;19924;-56
2021/08/25 12:05:52;;;;;;;;;;;;;;;29.11;32.53;102166.81;5052644;28;19928;-55
2021/08/25 12:08:19;;;;;;;;;;;;;;;29.26;32.85;102161.38;5053697;28;20338;-55
2021/08/25 12:11:12;;;;;;;;;;;;;;;29.79;32.44;102155.59;5052789;28;20326;-56
2021/08/25 12:13:40;;;;;;;;;;;;;;;29.65;31.71;102151.94;5051732;28;19979;-54
2021/08/25 12:16:10;;;;;;;;;;;;;;;29.64;31.47;102145.69;5053746;28;19932;-57
2021/08/25 12:18:45;;;;;;;;;;;;;;;29.62;31.28;102144.22;5052212;28;19947;-55
2021/08/25 12:21:12;;;;;;;;;;;;;;;29.81;30.45;102139.97;5051808;28;19925;-56
2021/08/25 12:23:53;;;;;;;;;;;;;;;29.84;30.11;102143.13;5053039;28;19924;-55
2021/08/25 12:26:19;;;;;;;;;;;;;;;29.11;30.29;102135.19;5035502;28;19924;-54
2021/08/25 12:28:46;;;;;;;;;;;;;;;29.37;30.19;102141.91;5053235;28;19925;-55
2021/08/25 12:31:14;;;;;;;;;;;;;;;28.72;30.63;102141.81;5052097;28;19932;-53
2021/08/25 12:33:41;;;;;;;;;;;;;;;29.06;30.50;102142.19;5053636;28;19928;-55
2021/08/25 12:36:18;;;;;;;;;;;;;;;29.27;29.92;102141.41;5035211;28;20265;-54
2021/08/25 12:38:44;;;;;;;;;;;;;;;29.78;30.15;102146.63;5053114;28;19925;-56